createdAt,value
2018-04-17T00:01:59.422Z,19.80
2018-04-17T00:04:27.507Z,19.90
2018-04-17T00:06:55.026Z,19.70
2018-04-17T00:09:22.405Z,19.40
2018-04-17T00:11:50.597Z,19.40
2018-04-17T00:14:17.950Z,19.80
2018-04-17T00:16:45.490Z,20.20
2018-04-17T00:19:12.860Z,20.40
2018-04-17T00:21:40.210Z,20.60
2018-04-17T00:24:08.334Z,20.60
2018-04-17T00:26:35.708Z,20.50
2018-04-17T00:29:03.854Z,20.20
2018-04-17T00:34:00.271Z,20.10
2018-04-17T00:36:28.362Z,20.40
2018-04-17T00:41:24.102Z,20.50
2018-04-17T00:46:19.888Z,20.50
2018-04-17T00:48:47.966Z,20.20
2018-04-17T00:53:51.738Z,18.80
2018-04-17T00:56:19.090Z,18.20
2018-04-17T00:58:47.194Z,18.80
2018-04-17T01:01:14.579Z,19.20
2018-04-17T01:03:41.903Z,19.50
2018-04-17T01:06:10.123Z,19.90
2018-04-17T01:11:06.579Z,20.20
2018-04-17T01:18:30.961Z,19.90
2018-04-17T01:20:58.354Z,20.00
2018-04-17T01:25:54.026Z,20.20
2018-04-17T01:28:22.071Z,20.20
2018-04-17T01:30:50.194Z,20.10
2018-04-17T01:33:17.522Z,20.10
2018-04-17T01:35:45.600Z,20.20
2018-04-17T01:40:41.206Z,20.20
2018-04-17T01:43:09.309Z,20.10
2018-04-17T01:45:36.662Z,20.00
2018-04-17T01:48:05.196Z,19.80
2018-04-17T01:50:33.251Z,19.10
2018-04-17T01:53:01.340Z,19.40
2018-04-17T01:55:28.710Z,19.70
2018-04-17T01:57:56.039Z,19.80
2018-04-17T02:02:52.756Z,19.50
2018-04-17T02:05:20.170Z,19.10
2018-04-17T02:12:45.410Z,18.80
2018-04-17T02:15:13.511Z,19.10
2018-04-17T02:17:40.861Z,19.50
2018-04-17T02:20:08.238Z,19.70
2018-04-17T02:27:32.297Z,19.30
2018-04-17T02:30:01.148Z,19.00
2018-04-17T02:32:29.386Z,19.20
2018-04-17T02:34:56.732Z,19.40
2018-04-17T02:37:24.850Z,19.80
2018-04-17T02:42:21.727Z,20.30
2018-04-17T02:44:49.151Z,20.70
2018-04-17T02:49:44.934Z,20.80
2018-04-17T02:52:13.382Z,20.70
2018-04-17T02:54:40.759Z,20.90
2018-04-17T02:57:08.826Z,21.00
2018-04-17T02:59:37.002Z,21.10
2018-04-17T03:07:00.930Z,21.40
2018-04-17T03:11:56.731Z,21.00
2018-04-17T03:16:53.250Z,20.30
2018-04-17T03:19:20.646Z,20.20
2018-04-17T03:21:48.829Z,19.90
2018-04-17T03:24:17.006Z,20.30
2018-04-17T03:26:45.225Z,20.50
2018-04-17T03:29:12.578Z,20.90
2018-04-17T03:31:40.724Z,21.00
2018-04-17T03:34:08.075Z,21.10
2018-04-17T03:36:35.699Z,20.60
2018-04-17T03:39:03.039Z,20.70
2018-04-17T03:46:28.155Z,20.40
2018-04-17T03:51:25.385Z,20.90
2018-04-17T03:56:21.043Z,21.10
2018-04-17T03:58:48.421Z,21.00
2018-04-17T04:01:15.778Z,20.80
2018-04-17T04:03:43.403Z,20.50
2018-04-17T04:06:10.949Z,20.30
2018-04-17T04:08:39.054Z,20.30
2018-04-17T04:11:07.103Z,20.50
2018-04-17T04:13:34.503Z,20.50
2018-04-17T04:18:42.471Z,20.80
2018-04-17T04:21:22.749Z,20.90
2018-04-17T04:24:02.195Z,20.90
2018-04-17T04:31:25.991Z,20.80
2018-04-17T04:36:21.626Z,20.60
2018-04-17T04:38:49.085Z,20.30
2018-04-17T04:43:44.762Z,20.30
2018-04-17T04:46:12.914Z,20.20
2018-04-17T04:51:08.541Z,20.00
2018-04-17T04:56:04.324Z,20.90
2018-04-17T05:00:59.995Z,21.40
2018-04-17T05:05:55.694Z,21.70
2018-04-17T05:10:51.575Z,21.50
2018-04-17T05:13:19.738Z,21.30
2018-04-17T05:15:48.022Z,21.40
2018-04-17T05:18:16.141Z,21.50
2018-04-17T05:23:12.615Z,21.30
2018-04-17T05:30:37.532Z,20.90
2018-04-17T05:33:05.768Z,20.90
2018-04-17T05:38:01.381Z,21.00
2018-04-17T05:42:57.878Z,21.20
2018-04-17T05:45:25.228Z,21.40
2018-04-17T05:47:53.355Z,21.80
2018-04-17T05:52:49.190Z,22.20
2018-04-17T05:55:16.534Z,22.60
2018-04-17T06:00:12.234Z,22.40
2018-04-17T06:02:39.594Z,21.50
2018-04-17T06:05:06.935Z,21.10
2018-04-17T06:07:34.308Z,20.80
2018-04-17T06:10:01.640Z,20.60
2018-04-17T06:12:28.997Z,20.70
2018-04-17T06:14:56.331Z,20.70
2018-04-17T06:17:24.455Z,21.00
2018-04-17T06:19:51.773Z,21.00
2018-04-17T06:22:19.890Z,20.70
2018-04-17T06:27:15.482Z,20.80
2018-04-17T06:29:42.863Z,21.50
2018-04-17T06:34:38.781Z,21.70
2018-04-17T06:37:06.123Z,21.70
2018-04-17T06:39:34.279Z,22.20
2018-04-17T06:42:01.665Z,22.30
2018-04-17T06:44:29.766Z,22.70
2018-04-17T06:46:57.110Z,23.10
2018-04-17T06:51:52.766Z,23.70
2018-04-17T06:54:20.230Z,23.90
2018-04-17T06:56:49.338Z,24.10
2018-04-17T06:59:21.246Z,24.50
2018-04-17T07:01:49.072Z,24.60
2018-04-17T07:04:16.538Z,24.70
2018-04-17T07:06:44.678Z,24.90
2018-04-17T07:14:09.167Z,24.50
2018-04-17T07:16:36.511Z,24.80
2018-04-17T07:19:03.839Z,25.00
2018-04-17T07:24:00.247Z,25.20
2018-04-17T07:26:27.657Z,25.40
2018-04-17T07:31:23.445Z,24.00
2018-04-17T07:33:51.535Z,24.10
2018-04-17T07:36:18.886Z,24.40
2018-04-17T07:38:47.149Z,24.30
2018-04-17T07:46:11.223Z,24.20
2018-04-17T07:48:45.624Z,24.70
2018-04-17T07:51:13.795Z,25.40
2018-04-17T07:53:41.162Z,25.90
2018-04-17T07:56:08.502Z,26.40
2018-04-17T07:58:36.713Z,26.60
2018-04-17T08:01:04.182Z,26.50
2018-04-17T08:03:33.095Z,26.30
2018-04-17T08:06:01.223Z,26.50
2018-04-17T08:08:28.639Z,26.60
2018-04-17T08:10:56.003Z,26.80
2018-04-17T08:13:23.524Z,27.10
2018-04-17T08:18:19.623Z,26.90
2018-04-17T08:20:46.990Z,27.20
2018-04-17T08:23:14.331Z,27.40
2018-04-17T08:30:38.358Z,27.70
2018-04-17T08:33:06.538Z,27.90
2018-04-17T08:38:02.419Z,28.40
2018-04-17T08:40:29.919Z,28.50
2018-04-17T08:45:25.627Z,27.80
2018-04-17T08:47:53.746Z,26.80
2018-04-17T08:50:21.930Z,27.20
2018-04-17T08:52:49.312Z,28.00
2018-04-17T08:55:16.670Z,28.40
2018-04-17T08:57:44.045Z,28.90
2018-04-17T09:02:39.651Z,29.40
2018-04-17T09:05:07.781Z,29.60
2018-04-17T09:07:35.277Z,29.80
2018-04-17T09:14:59.632Z,30.70
2018-04-17T09:17:27.094Z,30.80
2018-04-17T09:22:23.418Z,31.00
2018-04-17T09:24:50.795Z,31.00
2018-04-17T09:29:46.548Z,31.70
2018-04-17T09:34:42.945Z,32.20
2018-04-17T09:37:10.407Z,32.50
2018-04-17T09:39:38.502Z,32.60
2018-04-17T09:42:05.981Z,33.00
2018-04-17T09:44:34.193Z,33.30
2018-04-17T09:49:30.698Z,33.50
2018-04-17T09:54:26.407Z,33.50
2018-04-17T09:56:53.795Z,33.40
2018-04-17T09:59:21.148Z,33.80
2018-04-17T10:01:48.882Z,34.30
2018-04-17T10:06:45.462Z,34.90
2018-04-17T10:09:13.876Z,35.00
2018-04-17T10:11:41.330Z,35.10
2018-04-17T10:14:08.688Z,35.10
2018-04-17T10:16:36.790Z,35.10
2018-04-17T10:19:05.012Z,35.50
2018-04-17T10:21:33.144Z,35.70
2018-04-17T10:24:00.523Z,35.80
2018-04-17T10:26:27.914Z,35.80
2018-04-17T10:28:55.308Z,35.80
2018-04-17T10:33:51.847Z,35.80
2018-04-17T10:36:19.566Z,36.00
2018-04-17T10:38:46.932Z,36.00
2018-04-17T10:41:14.291Z,36.70
2018-04-17T10:43:41.677Z,37.50
2018-04-17T10:46:09.016Z,38.10
2018-04-17T10:48:36.427Z,38.50
2018-04-17T10:53:32.087Z,38.10
2018-04-17T10:56:00.219Z,38.40
2018-04-17T10:58:28.338Z,38.00
2018-04-17T11:00:56.818Z,38.40
2018-04-17T11:03:25.345Z,38.60
2018-04-17T11:05:54.030Z,38.20
2018-04-17T11:13:18.428Z,37.10
2018-04-17T11:15:46.597Z,36.70
2018-04-17T11:18:14.039Z,36.40
2018-04-17T11:20:41.403Z,37.30
2018-04-17T11:23:08.790Z,37.90
2018-04-17T11:25:36.963Z,38.50
2018-04-17T11:30:32.550Z,39.70
2018-04-17T11:32:59.897Z,40.50
2018-04-17T11:35:27.318Z,40.00
2018-04-17T11:37:54.671Z,39.70
2018-04-17T11:40:22.824Z,38.30
2018-04-17T11:42:50.215Z,38.60
2018-04-17T11:45:18.672Z,39.00
2018-04-17T11:47:46.066Z,39.20
2018-04-17T11:50:13.435Z,38.60
2018-04-17T11:52:41.954Z,37.60
2018-04-17T11:55:09.266Z,37.40
2018-04-17T11:57:36.766Z,37.60
2018-04-17T12:00:04.881Z,37.60
2018-04-17T12:02:32.514Z,36.60
2018-04-17T12:05:00.072Z,37.30
2018-04-17T12:07:27.578Z,38.30
2018-04-17T12:12:23.521Z,39.30
2018-04-17T12:14:51.611Z,39.50
2018-04-17T12:17:19.745Z,37.90
2018-04-17T12:19:47.183Z,37.40
2018-04-17T12:22:15.368Z,37.70
2018-04-17T12:24:43.687Z,36.40
2018-04-17T12:32:07.747Z,36.00
2018-04-17T12:34:35.271Z,36.30
2018-04-17T12:39:31.916Z,36.20
2018-04-17T12:44:28.369Z,35.30
2018-04-17T12:46:56.459Z,34.90
2018-04-17T12:54:21.470Z,34.60
2018-04-17T12:59:17.955Z,35.60
2018-04-17T13:06:41.847Z,37.40
2018-04-17T13:09:09.215Z,37.50
2018-04-17T13:11:36.639Z,37.60
2018-04-17T13:14:04.158Z,37.50
2018-04-17T13:18:59.819Z,36.70
2018-04-17T13:21:27.286Z,36.90
2018-04-17T13:26:23.011Z,36.50
2018-04-17T13:31:18.730Z,35.20
2018-04-17T13:33:46.823Z,33.90
2018-04-17T13:38:43.361Z,34.60
2018-04-17T13:41:11.547Z,34.80
2018-04-17T13:48:35.576Z,34.90
2018-04-17T13:51:03.716Z,35.10
2018-04-17T13:53:31.152Z,34.10
2018-04-17T13:58:26.824Z,31.80
2018-04-17T14:00:54.967Z,32.00
2018-04-17T14:03:22.311Z,32.00
2018-04-17T14:08:18.003Z,32.50
2018-04-17T14:10:46.059Z,32.90
2018-04-17T14:13:14.177Z,33.20
2018-04-17T14:15:42.279Z,33.20
2018-04-17T14:18:19.435Z,33.00
2018-04-17T14:20:57.261Z,33.50
2018-04-17T14:23:31.493Z,34.00
2018-04-17T14:28:30.543Z,33.40
2018-04-17T14:30:57.970Z,33.20
2018-04-17T14:33:26.177Z,33.00
2018-04-17T14:35:57.312Z,33.00
2018-04-17T14:38:27.357Z,33.10
2018-04-17T14:40:56.798Z,32.90
2018-04-17T14:43:28.724Z,32.80
2018-04-17T14:45:56.120Z,32.80
2018-04-17T14:48:25.867Z,32.60
2018-04-17T14:50:53.424Z,32.50
2018-04-17T14:53:20.810Z,32.40
2018-04-17T14:55:48.251Z,32.60
2018-04-17T14:58:17.596Z,32.60
2018-04-17T15:00:45.659Z,32.60
2018-04-17T15:03:13.798Z,32.50
2018-04-17T15:05:44.028Z,32.60
2018-04-17T15:08:13.462Z,32.00
2018-04-17T15:10:40.863Z,30.90
2018-04-17T15:13:08.318Z,31.30
2018-04-17T15:15:35.690Z,31.70
2018-04-17T15:18:03.199Z,31.60
2018-04-17T15:20:32.530Z,31.40
2018-04-17T15:23:00.779Z,31.30
2018-04-17T15:25:28.142Z,31.20
2018-04-17T15:27:55.547Z,31.20
2018-04-17T15:30:24.635Z,31.10
2018-04-17T15:32:52.164Z,31.10
2018-04-17T15:35:23.002Z,30.90
2018-04-17T15:37:50.418Z,30.80
2018-04-17T15:40:17.863Z,30.60
2018-04-17T15:42:45.246Z,30.30
2018-04-17T15:45:12.671Z,30.00
2018-04-17T15:47:40.824Z,30.00
2018-04-17T15:50:09.836Z,29.90
2018-04-17T15:52:37.260Z,30.10
2018-04-17T15:55:04.714Z,30.00
2018-04-17T15:57:32.131Z,29.90
2018-04-17T15:59:59.584Z,30.00
2018-04-17T16:02:26.926Z,30.00
2018-04-17T16:04:55.922Z,30.00
2018-04-17T16:07:24.015Z,30.00
2018-04-17T16:09:52.376Z,29.70
2018-04-17T16:12:21.748Z,29.70
2018-04-17T16:14:49.241Z,29.40
2018-04-17T16:17:18.501Z,29.30
2018-04-17T16:19:50.325Z,29.30
2018-04-17T16:22:18.620Z,29.40
2018-04-17T16:24:46.176Z,29.30
2018-04-17T16:27:15.620Z,29.30
2018-04-17T16:29:43.172Z,29.10
2018-04-17T16:32:16.844Z,29.00
2018-04-17T16:34:44.241Z,28.90
2018-04-17T16:37:11.655Z,28.80
2018-04-17T16:39:39.298Z,28.70
2018-04-17T16:42:06.654Z,28.60
2018-04-17T16:44:34.462Z,28.60
2018-04-17T16:47:02.595Z,28.50
2018-04-17T16:49:29.958Z,28.40
2018-04-17T16:51:58.511Z,28.40
2018-04-17T16:54:26.810Z,28.30
2018-04-17T16:56:54.186Z,28.20
2018-04-17T16:59:21.696Z,28.10
2018-04-17T17:01:50.727Z,28.10
2018-04-17T17:04:18.251Z,28.10
2018-04-17T17:06:46.755Z,28.10
2018-04-17T17:09:14.205Z,28.00
2018-04-17T17:11:43.384Z,27.80
2018-04-17T17:14:10.868Z,27.70
2018-04-17T17:16:43.825Z,27.60
2018-04-17T17:19:13.041Z,27.60
2018-04-17T17:21:40.458Z,27.50
2018-04-17T17:24:07.914Z,27.50
2018-04-17T17:26:35.307Z,27.50
2018-04-17T17:29:02.684Z,27.40
2018-04-17T17:31:30.179Z,27.40
2018-04-17T17:33:58.322Z,27.40
2018-04-17T17:36:25.671Z,27.50
2018-04-17T17:38:53.230Z,27.60
2018-04-17T17:41:20.613Z,27.70
2018-04-17T17:43:48.240Z,27.70
2018-04-17T17:46:15.622Z,27.80
2018-04-17T17:48:43.759Z,27.80
2018-04-17T17:51:11.201Z,27.80
2018-04-17T17:53:39.784Z,27.80
2018-04-17T17:56:07.184Z,27.80
2018-04-17T17:58:35.275Z,27.80
2018-04-17T18:01:03.477Z,27.70
2018-04-17T18:03:30.873Z,27.70
2018-04-17T18:05:59.990Z,27.60
2018-04-17T18:08:27.501Z,27.60
2018-04-17T18:10:54.949Z,27.50
2018-04-17T18:13:22.364Z,27.50
2018-04-17T18:15:50.478Z,27.40
2018-04-17T18:18:17.928Z,27.40
2018-04-17T18:20:47.585Z,27.30
2018-04-17T18:23:17.898Z,27.20
2018-04-17T18:25:45.408Z,27.10
2018-04-17T18:28:13.805Z,27.10
2018-04-17T18:30:41.274Z,27.00
2018-04-17T18:33:08.704Z,26.80
2018-04-17T18:35:37.963Z,26.50
2018-04-17T18:38:05.406Z,25.90
2018-04-17T18:40:32.797Z,25.70
2018-04-17T18:43:00.258Z,25.40
2018-04-17T18:45:29.443Z,25.20
2018-04-17T18:47:58.731Z,24.60
2018-04-17T18:50:27.327Z,23.90
2018-04-17T18:52:54.781Z,23.70
2018-04-17T18:55:23.040Z,23.50
2018-04-17T18:57:51.316Z,23.00
2018-04-17T19:00:21.310Z,22.70
2018-04-17T19:02:51.576Z,22.80
2018-04-17T19:05:19.087Z,23.00
2018-04-17T19:07:46.686Z,23.50
2018-04-17T19:10:16.126Z,22.90
2018-04-17T19:12:43.637Z,23.70
2018-04-17T19:15:15.762Z,24.20
2018-04-17T19:17:43.346Z,23.80
2018-04-17T19:20:11.751Z,23.00
2018-04-17T19:22:40.195Z,23.00
2018-04-17T19:25:08.649Z,23.70
2018-04-17T19:27:36.133Z,24.30
2018-04-17T19:30:03.642Z,24.60
2018-04-17T19:32:31.195Z,24.90
2018-04-17T19:34:58.580Z,24.90
2018-04-17T19:37:26.014Z,24.80
2018-04-17T19:39:55.012Z,24.80
2018-04-17T19:42:22.749Z,24.20
2018-04-17T19:44:50.176Z,24.30
2018-04-17T19:47:17.602Z,24.40
2018-04-17T19:49:45.743Z,24.60
2018-04-17T19:52:14.080Z,24.60
2018-04-17T19:54:41.509Z,24.60
2018-04-17T19:57:09.761Z,24.70
2018-04-17T19:59:37.204Z,24.60
2018-04-17T20:02:04.785Z,24.70
2018-04-17T20:04:32.298Z,24.70
2018-04-17T20:07:00.490Z,24.60
2018-04-17T20:09:28.096Z,24.50
2018-04-17T20:11:55.619Z,24.50
2018-04-17T20:14:23.037Z,24.30
2018-04-17T20:16:50.406Z,24.20
2018-04-17T20:19:20.404Z,24.00
2018-04-17T20:21:47.987Z,24.10
2018-04-17T20:24:16.227Z,24.40
2018-04-17T20:26:45.484Z,24.10
2018-04-17T20:29:12.915Z,24.00
2018-04-17T20:31:41.113Z,24.10
2018-04-17T20:34:08.480Z,23.80
2018-04-17T20:36:35.911Z,23.50
2018-04-17T20:39:03.312Z,23.20
2018-04-17T20:41:30.723Z,23.30
2018-04-17T20:43:58.515Z,23.70
2018-04-17T20:46:25.965Z,23.80
2018-04-17T20:48:53.455Z,23.80
2018-04-17T20:51:20.872Z,23.80
2018-04-17T20:53:48.322Z,23.60
2018-04-17T20:56:15.723Z,23.70
2018-04-17T20:58:43.306Z,23.90
2018-04-17T21:01:10.945Z,23.90
2018-04-17T21:03:38.361Z,24.10
2018-04-17T21:06:05.786Z,24.10
2018-04-17T21:08:33.926Z,24.00
2018-04-17T21:11:01.344Z,23.90
2018-04-17T21:13:28.955Z,23.90
2018-04-17T21:15:56.549Z,23.90
2018-04-17T21:18:23.991Z,23.90
2018-04-17T21:20:52.177Z,23.70
2018-04-17T21:23:20.627Z,23.40
2018-04-17T21:25:48.010Z,23.10
2018-04-17T21:28:16.121Z,22.60
2018-04-17T21:30:43.596Z,22.40
2018-04-17T21:33:11.787Z,22.80
2018-04-17T21:35:39.175Z,23.10
2018-04-17T21:38:06.602Z,23.40
2018-04-17T21:40:34.804Z,23.50
2018-04-17T21:43:02.936Z,23.40
2018-04-17T21:45:30.470Z,23.00
2018-04-17T21:47:57.859Z,23.10
2018-04-17T21:50:25.710Z,23.30
2018-04-17T21:52:53.111Z,23.40
2018-04-17T21:55:20.530Z,23.50
2018-04-17T21:57:48.041Z,23.50
2018-04-17T22:00:15.692Z,23.40
2018-04-17T22:02:43.784Z,23.40
2018-04-17T22:05:11.271Z,23.40
2018-04-17T22:07:39.487Z,23.40
2018-04-17T22:10:07.663Z,23.30
2018-04-17T22:12:35.070Z,23.10
2018-04-17T22:15:02.460Z,22.90
2018-04-17T22:17:29.907Z,22.90
2018-04-17T22:19:58.143Z,23.10
2018-04-17T22:22:25.683Z,23.30
2018-04-17T22:24:53.020Z,23.30
2018-04-17T22:27:21.249Z,23.30
2018-04-17T22:29:48.699Z,23.30
2018-04-17T22:32:16.061Z,22.30
2018-04-17T22:34:43.937Z,21.70
2018-04-17T22:37:12.449Z,21.30
2018-04-17T22:39:39.985Z,20.90
2018-04-17T22:42:08.127Z,21.40
2018-04-17T22:44:35.546Z,21.90
2018-04-17T22:47:03.068Z,22.20
2018-04-17T22:49:31.215Z,22.50
2018-04-17T22:51:58.655Z,22.70
2018-04-17T22:54:26.037Z,22.60
2018-04-17T22:56:53.670Z,22.40
2018-04-17T22:59:21.076Z,22.40
2018-04-17T23:01:49.250Z,22.30
2018-04-17T23:04:17.519Z,21.80
2018-04-17T23:06:44.891Z,22.00
2018-04-17T23:09:13.030Z,22.20
2018-04-17T23:11:40.396Z,22.30
2018-04-17T23:14:08.482Z,22.00
2018-04-17T23:19:04.138Z,22.20
2018-04-17T23:23:59.932Z,22.40
2018-04-17T23:28:56.311Z,21.60
2018-04-17T23:31:23.761Z,21.40
2018-04-17T23:36:19.440Z,21.20
2018-04-17T23:38:46.922Z,21.10
2018-04-17T23:43:42.925Z,21.20
2018-04-17T23:46:10.489Z,21.60
2018-04-17T23:48:38.586Z,21.50
2018-04-17T23:53:34.482Z,21.60
2018-04-17T23:56:02.539Z,21.70
2018-04-17T23:58:30.982Z,20.80
